sensor_id;sensor_type;location;lat;lon;timestamp;pressure;altitude;pressure_sealevel;temperature;humidity
8320;BME280;4197;42.130;24.746;2024-02-26T00:01:24;99159.75;;;9.72;100.00
8320;BME280;4197;42.130;24.746;2024-02-26T00:03:53;99167.06;;;9.72;100.00
8320;BME280;4197;42.130;24.746;2024-02-26T00:06:26;99158.63;;;9.73;100.00
8320;BME280;4197;42.130;24.746;2024-02-26T00:08:54;99162.44;;;9.72;100.00
8320;BME280;4197;42.130;24.746;2024-02-26T00:11:23;99152.75;;;9.71;100.00
8320;BME280;4197;42.130;24.746;2024-02-26T00:13:51;99148.09;;;9.52;100.00
8320;BME280;4197;42.130;24.746;2024-02-26T00:16:20;99142.44;;;9.42;100.00
8320;BME280;4197;42.130;24.746;2024-02-26T00:18:50;99144.06;;;9.62;100.00
8320;BME280;4197;42.130;24.746;2024-02-26T00:21:18;99138.28;;;9.64;100.00
8320;BME280;4197;42.130;24.746;2024-02-26T00:23:47;99143.63;;;9.60;100.00
8320;BME280;4197;42.130;24.746;2024-02-26T00:26:16;99156.66;;;9.54;100.00
8320;BME280;4197;42.130;24.746;2024-02-26T00:28:44;99157.88;;;9.57;100.00
8320;BME280;4197;42.130;24.746;2024-02-26T00:31:12;99156.47;;;9.63;100.00
8320;BME280;4197;42.130;24.746;2024-02-26T00:33:40;99142.84;;;9.59;100.00
8320;BME280;4197;42.130;24.746;2024-02-26T00:36:11;99157.75;;;9.69;100.00
8320;BME280;4197;42.130;24.746;2024-02-26T00:38:39;99160.72;;;9.64;100.00
8320;BME280;4197;42.130;24.746;2024-02-26T00:41:09;99160.66;;;9.60;100.00
8320;BME280;4197;42.130;24.746;2024-02-26T00:43:38;99160.31;;;9.62;100.00
8320;BME280;4197;42.130;24.746;2024-02-26T00:46:07;99149.34;;;9.74;100.00
8320;BME280;4197;42.130;24.746;2024-02-26T00:48:36;99144.63;;;9.71;100.00
8320;BME280;4197;42.130;24.746;2024-02-26T00:51:05;99158.16;;;9.52;100.00
8320;BME280;4197;42.130;24.746;2024-02-26T00:53:36;99134.66;;;9.21;100.00
8320;BME280;4197;42.130;24.746;2024-02-26T00:56:04;99108.53;;;9.28;100.00
8320;BME280;4197;42.130;24.746;2024-02-26T00:58:33;99086.31;;;9.19;100.00
8320;BME280;4197;42.130;24.746;2024-02-26T01:01:02;99077.13;;;9.24;100.00
8320;BME280;4197;42.130;24.746;2024-02-26T01:03:34;99055.44;;;9.40;100.00
8320;BME280;4197;42.130;24.746;2024-02-26T01:06:03;99067.06;;;9.59;100.00
8320;BME280;4197;42.130;24.746;2024-02-26T01:08:32;99062.56;;;9.67;100.00
8320;BME280;4197;42.130;24.746;2024-02-26T01:11:04;99079.09;;;9.81;100.00
8320;BME280;4197;42.130;24.746;2024-02-26T01:13:32;99090.69;;;10.01;100.00
8320;BME280;4197;42.130;24.746;2024-02-26T01:16:00;99077.78;;;9.95;100.00
8320;BME280;4197;42.130;24.746;2024-02-26T01:18:29;99069.25;;;9.93;100.00
8320;BME280;4197;42.130;24.746;2024-02-26T01:20:57;99090.19;;;9.96;100.00
8320;BME280;4197;42.130;24.746;2024-02-26T01:23:26;99098.09;;;10.04;100.00
8320;BME280;4197;42.130;24.746;2024-02-26T01:25:54;99080.91;;;9.97;100.00
8320;BME280;4197;42.130;24.746;2024-02-26T01:28:24;99083.28;;;9.98;100.00
8320;BME280;4197;42.130;24.746;2024-02-26T01:30:52;99105.72;;;9.99;100.00
8320;BME280;4197;42.130;24.746;2024-02-26T01:33:20;99107.50;;;9.91;100.00
8320;BME280;4197;42.130;24.746;2024-02-26T01:35:49;99110.59;;;9.90;100.00
8320;BME280;4197;42.130;24.746;2024-02-26T01:38:17;99103.84;;;10.03;100.00
8320;BME280;4197;42.130;24.746;2024-02-26T01:40:46;99101.16;;;10.03;100.00
8320;BME280;4197;42.130;24.746;2024-02-26T01:43:14;99105.72;;;9.99;100.00
8320;BME280;4197;42.130;24.746;2024-02-26T01:45:44;99109.16;;;9.96;100.00
8320;BME280;4197;42.130;24.746;2024-02-26T01:48:12;99107.38;;;9.84;100.00
8320;BME280;4197;42.130;24.746;2024-02-26T01:50:41;99109.00;;;9.89;100.00
8320;BME280;4197;42.130;24.746;2024-02-26T01:53:10;99100.03;;;9.85;100.00
8320;BME280;4197;42.130;24.746;2024-02-26T01:55:39;99100.16;;;9.92;100.00
8320;BME280;4197;42.130;24.746;2024-02-26T01:58:09;99110.59;;;9.90;100.00
8320;BME280;4197;42.130;24.746;2024-02-26T02:00:37;99102.31;;;9.82;100.00
8320;BME280;4197;42.130;24.746;2024-02-26T02:03:08;99103.19;;;9.67;100.00
8320;BME280;4197;42.130;24.746;2024-02-26T02:05:37;99096.34;;;9.73;100.00
8320;BME280;4197;42.130;24.746;2024-02-26T02:08:10;99099.25;;;9.65;100.00
8320;BME280;4197;42.130;24.746;2024-02-26T02:10:39;99087.50;;;9.57;100.00
8320;BME280;4197;42.130;24.746;2024-02-26T02:13:09;99087.34;;;9.50;100.00
8320;BME280;4197;42.130;24.746;2024-02-26T02:15:37;99105.34;;;9.42;100.00
8320;BME280;4197;42.130;24.746;2024-02-26T02:18:07;99103.56;;;9.30;100.00
8320;BME280;4197;42.130;24.746;2024-02-26T02:20:38;99097.03;;;9.31;100.00
8320;BME280;4197;42.130;24.746;2024-02-26T02:23:06;99097.53;;;9.37;100.00
8320;BME280;4197;42.130;24.746;2024-02-26T02:25:35;99091.94;;;9.30;100.00
8320;BME280;4197;42.130;24.746;2024-02-26T02:28:04;99093.56;;;9.15;100.00
8320;BME280;4197;42.130;24.746;2024-02-26T02:30:33;99096.09;;;9.08;100.00
8320;BME280;4197;42.130;24.746;2024-02-26T02:33:03;99099.50;;;9.05;100.00
8320;BME280;4197;42.130;24.746;2024-02-26T02:35:32;99092.53;;;9.04;100.00
8320;BME280;4197;42.130;24.746;2024-02-26T02:38:03;99096.28;;;8.99;100.00
8320;BME280;4197;42.130;24.746;2024-02-26T02:40:31;99100.47;;;8.97;100.00
8320;BME280;4197;42.130;24.746;2024-02-26T02:43:00;99096.13;;;8.92;100.00
8320;BME280;4197;42.130;24.746;2024-02-26T02:45:28;99099.53;;;8.89;100.00
8320;BME280;4197;42.130;24.746;2024-02-26T02:47:57;99100.31;;;8.89;100.00
8320;BME280;4197;42.130;24.746;2024-02-26T02:50:25;99089.59;;;8.93;100.00
8320;BME280;4197;42.130;24.746;2024-02-26T02:52:56;99097.97;;;8.88;100.00
8320;BME280;4197;42.130;24.746;2024-02-26T02:55:25;99105.19;;;8.84;100.00
8320;BME280;4197;42.130;24.746;2024-02-26T02:57:54;99106.72;;;8.81;100.00
8320;BME280;4197;42.130;24.746;2024-02-26T03:00:22;99105.03;;;8.77;100.00
8320;BME280;4197;42.130;24.746;2024-02-26T03:02:51;99101.91;;;8.75;100.00
8320;BME280;4197;42.130;24.746;2024-02-26T03:05:20;99096.84;;;8.73;100.00
8320;BME280;4197;42.130;24.746;2024-02-26T03:07:48;99101.47;;;8.73;100.00
8320;BME280;4197;42.130;24.746;2024-02-26T03:10:16;99106.78;;;8.69;100.00
8320;BME280;4197;42.130;24.746;2024-02-26T03:12:46;99106.34;;;8.67;100.00
8320;BME280;4197;42.130;24.746;2024-02-26T03:15:14;99106.69;;;8.65;100.00
8320;BME280;4197;42.130;24.746;2024-02-26T03:17:43;99110.97;;;8.66;100.00
8320;BME280;4197;42.130;24.746;2024-02-26T03:20:11;99114.44;;;8.67;100.00
8320;BME280;4197;42.130;24.746;2024-02-26T03:22:40;99116.81;;;8.68;100.00
8320;BME280;4197;42.130;24.746;2024-02-26T03:25:08;99107.16;;;8.67;100.00
8320;BME280;4197;42.130;24.746;2024-02-26T03:27:36;99114.38;;;8.63;100.00
8320;BME280;4197;42.130;24.746;2024-02-26T03:30:07;99109.66;;;8.60;100.00
8320;BME280;4197;42.130;24.746;2024-02-26T03:32:36;99113.59;;;8.63;100.00
8320;BME280;4197;42.130;24.746;2024-02-26T03:35:05;99103.03;;;8.58;100.00
8320;BME280;4197;42.130;24.746;2024-02-26T03:37:34;99101.38;;;8.53;100.00
8320;BME280;4197;42.130;24.746;2024-02-26T03:40:03;99116.56;;;8.58;100.00
8320;BME280;4197;42.130;24.746;2024-02-26T03:42:31;99119.34;;;8.61;100.00
8320;BME280;4197;42.130;24.746;2024-02-26T03:45:00;99110.44;;;8.61;100.00
8320;BME280;4197;42.130;24.746;2024-02-26T03:47:30;99115.50;;;8.62;100.00
8320;BME280;4197;42.130;24.746;2024-02-26T03:49:58;99114.88;;;8.53;100.00
8320;BME280;4197;42.130;24.746;2024-02-26T03:52:27;99113.25;;;8.48;100.00
8320;BME280;4197;42.130;24.746;2024-02-26T03:54:55;99108.09;;;8.59;100.00
8320;BME280;4197;42.130;24.746;2024-02-26T03:57:24;99106.19;;;8.60;100.00
8320;BME280;4197;42.130;24.746;2024-02-26T03:59:52;99115.16;;;8.64;100.00
8320;BME280;4197;42.130;24.746;2024-02-26T04:02:21;99116.75;;;8.65;100.00
8320;BME280;4197;42.130;24.746;2024-02-26T04:04:51;99123.88;;;8.73;100.00
8320;BME280;4197;42.130;24.746;2024-02-26T04:07:20;99123.72;;;8.82;100.00
8320;BME280;4197;42.130;24.746;2024-02-26T04:09:48;99120.47;;;8.76;100.00
8320;BME280;4197;42.130;24.746;2024-02-26T04:12:16;99120.31;;;8.69;100.00
8320;BME280;4197;42.130;24.746;2024-02-26T04:14:45;99118.38;;;8.69;100.00
8320;BME280;4197;42.130;24.746;2024-02-26T04:17:13;99118.91;;;8.75;100.00
8320;BME280;4197;42.130;24.746;2024-02-26T04:19:42;99113.84;;;8.74;100.00
8320;BME280;4197;42.130;24.746;2024-02-26T04:22:12;99121.97;;;8.74;100.00
8320;BME280;4197;42.130;24.746;2024-02-26T04:24:42;99116.63;;;8.77;100.00
8320;BME280;4197;42.130;24.746;2024-02-26T04:27:10;99114.38;;;8.79;100.00
8320;BME280;4197;42.130;24.746;2024-02-26T04:29:40;99113.69;;;8.82;100.00
8320;BME280;4197;42.130;24.746;2024-02-26T04:32:08;99114.13;;;8.84;100.00
8320;BME280;4197;42.130;24.746;2024-02-26T04:34:37;99121.09;;;8.85;100.00
8320;BME280;4197;42.130;24.746;2024-02-26T04:37:05;99117.69;;;8.88;100.00
8320;BME280;4197;42.130;24.746;2024-02-26T04:39:35;99123.88;;;8.89;100.00
8320;BME280;4197;42.130;24.746;2024-02-26T04:42:04;99123.09;;;8.88;100.00
8320;BME280;4197;42.130;24.746;2024-02-26T04:47:21;99127.72;;;8.88;100.00
8320;BME280;4197;42.130;24.746;2024-02-26T04:49:51;99122.63;;;8.86;100.00
8320;BME280;4197;42.130;24.746;2024-02-26T04:52:21;99117.34;;;8.90;100.00
8320;BME280;4197;42.130;24.746;2024-02-26T04:54:51;99116.97;;;8.91;100.00
8320;BME280;4197;42.130;24.746;2024-02-26T04:57:20;99119.53;;;8.84;100.00
8320;BME280;4197;42.130;24.746;2024-02-26T04:59:48;99128.84;;;8.71;100.00
8320;BME280;4197;42.130;24.746;2024-02-26T05:02:17;99132.75;;;8.58;100.00
8320;BME280;4197;42.130;24.746;2024-02-26T05:04:46;99138.41;;;8.53;100.00
8320;BME280;4197;42.130;24.746;2024-02-26T05:07:17;99139.19;;;8.53;100.00
8320;BME280;4197;42.130;24.746;2024-02-26T05:09:46;99135.13;;;8.59;100.00
8320;BME280;4197;42.130;24.746;2024-02-26T05:12:18;99132.59;;;8.66;100.00
8320;BME280;4197;42.130;24.746;2024-02-26T05:14:46;99133.38;;;8.67;100.00
8320;BME280;4197;42.130;24.746;2024-02-26T05:17:15;99132.25;;;8.68;100.00
8320;BME280;4197;42.130;24.746;2024-02-26T05:19:43;99144.19;;;8.67;100.00
8320;BME280;4197;42.130;24.746;2024-02-26T05:22:11;99142.78;;;8.57;100.00
8320;BME280;4197;42.130;24.746;2024-02-26T05:24:40;99135.47;;;8.58;100.00
8320;BME280;4197;42.130;24.746;2024-02-26T05:27:08;99141.41;;;8.63;100.00
8320;BME280;4197;42.130;24.746;2024-02-26T05:29:39;99147.34;;;8.69;100.00
8320;BME280;4197;42.130;24.746;2024-02-26T05:32:07;99144.63;;;8.69;100.00
8320;BME280;4197;42.130;24.746;2024-02-26T05:34:36;99145.50;;;8.73;100.00
8320;BME280;4197;42.130;24.746;2024-02-26T05:37:05;99153.19;;;8.71;100.00
8320;BME280;4197;42.130;24.746;2024-02-26T05:39:34;99150.22;;;8.76;100.00
8320;BME280;4197;42.130;24.746;2024-02-26T05:42:04;99152.94;;;8.76;100.00
8320;BME280;4197;42.130;24.746;2024-02-26T05:44:32;99153.34;;;8.78;100.00
8320;BME280;4197;42.130;24.746;2024-02-26T05:47:02;99144.91;;;8.80;100.00
8320;BME280;4197;42.130;24.746;2024-02-26T05:49:33;99148.13;;;8.85;100.00
8320;BME280;4197;42.130;24.746;2024-02-26T05:52:02;99156.16;;;8.82;100.00
8320;BME280;4197;42.130;24.746;2024-02-26T05:54:31;99154.66;;;8.84;100.00
8320;BME280;4197;42.130;24.746;2024-02-26T05:57:00;99158.94;;;8.85;100.00
8320;BME280;4197;42.130;24.746;2024-02-26T05:59:28;99169.84;;;8.89;100.00
8320;BME280;4197;42.130;24.746;2024-02-26T06:01:57;99170.47;;;8.98;100.00
8320;BME280;4197;42.130;24.746;2024-02-26T06:04:27;99172.34;;;8.98;100.00
8320;BME280;4197;42.130;24.746;2024-02-26T06:06:56;99179.09;;;9.04;100.00
8320;BME280;4197;42.130;24.746;2024-02-26T06:09:24;99181.81;;;9.04;100.00
8320;BME280;4197;42.130;24.746;2024-02-26T06:11:53;99180.41;;;9.10;100.00
8320;BME280;4197;42.130;24.746;2024-02-26T06:14:21;99183.53;;;9.12;100.00
8320;BME280;4197;42.130;24.746;2024-02-26T06:16:50;99189.81;;;9.16;100.00
8320;BME280;4197;42.130;24.746;2024-02-26T06:19:19;99185.69;;;9.22;100.00
8320;BME280;4197;42.130;24.746;2024-02-26T06:21:48;99191.81;;;9.35;100.00
8320;BME280;4197;42.130;24.746;2024-02-26T06:24:17;99192.75;;;9.43;100.00
8320;BME280;4197;42.130;24.746;2024-02-26T06:26:48;99188.63;;;9.49;100.00
8320;BME280;4197;42.130;24.746;2024-02-26T06:29:16;99191.47;;;9.56;100.00
8320;BME280;4197;42.130;24.746;2024-02-26T06:31:44;99191.22;;;9.61;100.00
8320;BME280;4197;42.130;24.746;2024-02-26T06:34:14;99202.47;;;9.63;100.00
8320;BME280;4197;42.130;24.746;2024-02-26T06:36:42;99205.19;;;9.63;100.00
8320;BME280;4197;42.130;24.746;2024-02-26T06:39:13;99205.00;;;9.72;100.00
8320;BME280;4197;42.130;24.746;2024-02-26T06:41:43;99209.03;;;9.62;100.00
8320;BME280;4197;42.130;24.746;2024-02-26T06:44:13;99218.00;;;9.66;100.00
8320;BME280;4197;42.130;24.746;2024-02-26T06:46:42;99213.75;;;9.65;100.00
8320;BME280;4197;42.130;24.746;2024-02-26T06:49:10;99202.56;;;9.67;100.00
8320;BME280;4197;42.130;24.746;2024-02-26T06:51:39;99214.41;;;9.78;100.00
8320;BME280;4197;42.130;24.746;2024-02-26T06:54:07;99215.47;;;9.73;100.00
8320;BME280;4197;42.130;24.746;2024-02-26T06:56:38;99222.91;;;9.96;100.00
8320;BME280;4197;42.130;24.746;2024-02-26T06:59:08;99221.63;;;9.90;100.00
8320;BME280;4197;42.130;24.746;2024-02-26T07:01:37;99227.06;;;9.90;100.00
8320;BME280;4197;42.130;24.746;2024-02-26T07:04:05;99224.97;;;10.02;100.00
8320;BME280;4197;42.130;24.746;2024-02-26T07:06:34;99219.50;;;9.99;100.00
8320;BME280;4197;42.130;24.746;2024-02-26T07:09:04;99233.75;;;9.96;100.00
8320;BME280;4197;42.130;24.746;2024-02-26T07:11:35;99216.94;;;10.06;100.00
8320;BME280;4197;42.130;24.746;2024-02-26T07:14:07;99222.50;;;10.13;100.00
8320;BME280;4197;42.130;24.746;2024-02-26T07:16:36;99211.44;;;10.22;100.00
8320;BME280;4197;42.130;24.746;2024-02-26T07:19:06;99220.44;;;10.26;100.00
8320;BME280;4197;42.130;24.746;2024-02-26T07:21:34;99227.16;;;10.32;100.00
8320;BME280;4197;42.130;24.746;2024-02-26T07:24:04;99228.88;;;10.40;100.00
8320;BME280;4197;42.130;24.746;2024-02-26T07:26:33;99220.91;;;10.47;100.00
8320;BME280;4197;42.130;24.746;2024-02-26T07:29:02;99219.94;;;10.59;100.00
8320;BME280;4197;42.130;24.746;2024-02-26T07:31:32;99223.16;;;10.65;100.00
8320;BME280;4197;42.130;24.746;2024-02-26T07:34:01;99227.34;;;10.62;100.00
8320;BME280;4197;42.130;24.746;2024-02-26T07:36:30;99226.19;;;10.63;100.00
8320;BME280;4197;42.130;24.746;2024-02-26T07:38:58;99218.72;;;10.57;100.00
8320;BME280;4197;42.130;24.746;2024-02-26T07:41:28;99231.50;;;10.56;100.00
8320;BME280;4197;42.130;24.746;2024-02-26T07:43:57;99223.00;;;10.58;100.00
8320;BME280;4197;42.130;24.746;2024-02-26T07:46:26;99222.47;;;10.71;100.00
8320;BME280;4197;42.130;24.746;2024-02-26T07:48:56;99223.25;;;10.72;100.00
8320;BME280;4197;42.130;24.746;2024-02-26T07:51:25;99222.19;;;10.77;100.00
8320;BME280;4197;42.130;24.746;2024-02-26T07:53:56;99213.53;;;10.90;100.00
8320;BME280;4197;42.130;24.746;2024-02-26T07:56:26;99215.22;;;10.76;100.00
8320;BME280;4197;42.130;24.746;2024-02-26T07:58:54;99215.78;;;10.65;100.00
8320;BME280;4197;42.130;24.746;2024-02-26T08:01:23;99211.56;;;10.45;100.00
8320;BME280;4197;42.130;24.746;2024-02-26T08:03:53;99209.25;;;10.47;100.00
8320;BME280;4197;42.130;24.746;2024-02-26T08:06:25;99217.09;;;10.33;100.00
8320;BME280;4197;42.130;24.746;2024-02-26T08:08:54;99211.56;;;10.45;100.00
8320;BME280;4197;42.130;24.746;2024-02-26T08:11:24;99215.97;;;10.53;100.00
8320;BME280;4197;42.130;24.746;2024-02-26T08:13:52;99219.47;;;10.54;100.00
8320;BME280;4197;42.130;24.746;2024-02-26T08:16:21;99216.72;;;10.73;100.00
8320;BME280;4197;42.130;24.746;2024-02-26T08:18:49;99219.66;;;10.87;100.00
8320;BME280;4197;42.130;24.746;2024-02-26T08:21:20;99214.16;;;11.30;100.00
8320;BME280;4197;42.130;24.746;2024-02-26T08:23:50;99216.44;;;11.51;100.00
8320;BME280;4197;42.130;24.746;2024-02-26T08:26:19;99213.59;;;11.44;100.00
8320;BME280;4197;42.130;24.746;2024-02-26T08:28:49;99218.91;;;11.86;100.00
8320;BME280;4197;42.130;24.746;2024-02-26T08:31:18;99226.91;;;11.79;100.00
8320;BME280;4197;42.130;24.746;2024-02-26T08:33:47;99217.56;;;12.03;100.00
8320;BME280;4197;42.130;24.746;2024-02-26T08:36:15;99215.06;;;11.91;100.00
8320;BME280;4197;42.130;24.746;2024-02-26T08:38:45;99220.97;;;11.70;100.00
8320;BME280;4197;42.130;24.746;2024-02-26T08:41:15;99216.66;;;11.92;100.00
8320;BME280;4197;42.130;24.746;2024-02-26T08:43:43;99221.41;;;12.02;100.00
8320;BME280;4197;42.130;24.746;2024-02-26T08:46:13;99215.66;;;12.41;100.00
8320;BME280;4197;42.130;24.746;2024-02-26T08:48:41;99221.72;;;12.27;100.00
8320;BME280;4197;42.130;24.746;2024-02-26T08:51:10;99215.94;;;12.28;100.00
8320;BME280;4197;42.130;24.746;2024-02-26T08:53:41;99217.94;;;12.35;100.00
8320;BME280;4197;42.130;24.746;2024-02-26T08:56:16;99219.09;;;12.34;100.00
8320;BME280;4197;42.130;24.746;2024-02-26T08:58:45;99212.00;;;12.60;100.00
8320;BME280;4197;42.130;24.746;2024-02-26T09:01:16;99217.44;;;12.60;100.00
8320;BME280;4197;42.130;24.746;2024-02-26T09:03:45;99212.22;;;12.81;100.00
8320;BME280;4197;42.130;24.746;2024-02-26T09:06:15;99211.97;;;12.97;100.00
8320;BME280;4197;42.130;24.746;2024-02-26T09:08:43;99215.19;;;13.13;100.00
8320;BME280;4197;42.130;24.746;2024-02-26T09:11:12;99211.91;;;12.93;100.00
8320;BME280;4197;42.130;24.746;2024-02-26T09:13:41;99210.69;;;12.87;100.00
8320;BME280;4197;42.130;24.746;2024-02-26T09:16:11;99202.44;;;12.77;100.00
8320;BME280;4197;42.130;24.746;2024-02-26T09:18:40;99205.69;;;12.93;100.00
8320;BME280;4197;42.130;24.746;2024-02-26T09:21:08;99207.00;;;13.06;100.00
8320;BME280;4197;42.130;24.746;2024-02-26T09:23:37;99208.00;;;13.32;100.00
8320;BME280;4197;42.130;24.746;2024-02-26T09:26:05;99212.41;;;13.51;100.00
8320;BME280;4197;42.130;24.746;2024-02-26T09:28:34;99213.44;;;13.35;100.00
8320;BME280;4197;42.130;24.746;2024-02-26T09:31:05;99201.16;;;13.52;100.00
8320;BME280;4197;42.130;24.746;2024-02-26T09:33:34;99202.31;;;13.55;100.00
8320;BME280;4197;42.130;24.746;2024-02-26T09:36:04;99212.41;;;13.51;100.00
8320;BME280;4197;42.130;24.746;2024-02-26T09:38:33;99209.69;;;13.54;100.00
8320;BME280;4197;42.130;24.746;2024-02-26T09:41:22;99209.00;;;13.68;100.00
8320;BME280;4197;42.130;24.746;2024-02-26T09:43:56;99207.97;;;13.91;100.00
8320;BME280;4197;42.130;24.746;2024-02-26T09:46:26;99195.16;;;13.98;100.00
8320;BME280;4197;42.130;24.746;2024-02-26T09:48:55;99200.66;;;14.13;100.00
8320;BME280;4197;42.130;24.746;2024-02-26T09:51:25;99205.34;;;14.12;100.00
8320;BME280;4197;42.130;24.746;2024-02-26T09:53:59;99196.06;;;14.27;100.00
8320;BME280;4197;42.130;24.746;2024-02-26T09:56:34;99196.50;;;14.44;100.00
8320;BME280;4197;42.130;24.746;2024-02-26T09:59:22;99189.06;;;14.37;100.00
8320;BME280;4197;42.130;24.746;2024-02-26T10:01:53;99190.25;;;14.36;100.00
8320;BME280;4197;42.130;24.746;2024-02-26T10:04:22;99186.72;;;14.36;100.00
8320;BME280;4197;42.130;24.746;2024-02-26T10:06:53;99190.63;;;14.42;100.00
8320;BME280;4197;42.130;24.746;2024-02-26T10:09:23;99184.41;;;14.45;100.00
8320;BME280;4197;42.130;24.746;2024-02-26T10:11:52;99170.38;;;14.36;100.00
8320;BME280;4197;42.130;24.746;2024-02-26T10:14:21;99166.47;;;14.37;100.00
8320;BME280;4197;42.130;24.746;2024-02-26T10:16:54;99166.09;;;14.38;100.00
8320;BME280;4197;42.130;24.746;2024-02-26T10:19:26;99164.09;;;14.35;100.00
8320;BME280;4197;42.130;24.746;2024-02-26T10:21:57;99154.38;;;14.38;100.00
8320;BME280;4197;42.130;24.746;2024-02-26T10:24:26;99142.38;;;14.53;100.00
8320;BME280;4197;42.130;24.746;2024-02-26T10:26:55;99138.88;;;14.67;100.00
8320;BME280;4197;42.130;24.746;2024-02-26T10:29:25;99138.47;;;14.68;100.00
8320;BME280;4197;42.130;24.746;2024-02-26T10:31:56;99136.16;;;14.78;100.00
8320;BME280;4197;42.130;24.746;2024-02-26T10:34:24;99143.97;;;14.97;100.00
8320;BME280;4197;42.130;24.746;2024-02-26T10:36:53;99132.25;;;14.97;100.00
8320;BME280;4197;42.130;24.746;2024-02-26T10:39:22;99131.06;;;14.76;100.00
8320;BME280;4197;42.130;24.746;2024-02-26T10:41:50;99127.53;;;14.50;100.00
8320;BME280;4197;42.130;24.746;2024-02-26T10:44:21;99131.06;;;14.72;100.00
8320;BME280;4197;42.130;24.746;2024-02-26T10:46:49;99124.44;;;14.73;100.00
8320;BME280;4197;42.130;24.746;2024-02-26T10:49:20;99126.00;;;14.85;100.00
8320;BME280;4197;42.130;24.746;2024-02-26T10:51:55;99121.72;;;14.88;100.00
8320;BME280;4197;42.130;24.746;2024-02-26T10:54:27;99118.22;;;14.80;100.00
8320;BME280;4197;42.130;24.746;2024-02-26T10:56:59;99116.63;;;14.68;100.00
8320;BME280;4197;42.130;24.746;2024-02-26T10:59:29;99117.06;;;14.63;100.00
8320;BME280;4197;42.130;24.746;2024-02-26T11:01:59;99107.69;;;14.75;100.00
8320;BME280;4197;42.130;24.746;2024-02-26T11:04:30;99104.97;;;14.64;100.00
8320;BME280;4197;42.130;24.746;2024-02-26T11:06:59;99108.06;;;14.81;100.00
8320;BME280;4197;42.130;24.746;2024-02-26T11:09:28;99104.97;;;14.75;100.00
8320;BME280;4197;42.130;24.746;2024-02-26T11:11:57;99106.91;;;14.75;100.00
8320;BME280;4197;42.130;24.746;2024-02-26T11:14:29;99104.91;;;14.43;100.00
8320;BME280;4197;42.130;24.746;2024-02-26T11:16:58;99090.47;;;14.42;100.00
8320;BME280;4197;42.130;24.746;2024-02-26T11:19:36;99092.47;;;14.56;100.00
8320;BME280;4197;42.130;24.746;2024-02-26T11:22:05;99092.03;;;14.40;100.00
8320;BME280;4197;42.130;24.746;2024-02-26T11:24:47;99086.22;;;14.41;100.00
8320;BME280;4197;42.130;24.746;2024-02-26T11:27:17;99086.25;;;14.66;100.00
8320;BME280;4197;42.130;24.746;2024-02-26T11:29:50;99084.31;;;14.63;100.00
8320;BME280;4197;42.130;24.746;2024-02-26T11:32:19;99078.03;;;14.99;100.00
8320;BME280;4197;42.130;24.746;2024-02-26T11:34:49;99079.19;;;15.08;100.00
8320;BME280;4197;42.130;24.746;2024-02-26T11:37:18;99079.19;;;15.08;100.00
8320;BME280;4197;42.130;24.746;2024-02-26T11:39:47;99070.25;;;14.83;99.65
8320;BME280;4197;42.130;24.746;2024-02-26T11:42:16;99072.97;;;14.97;81.26
8320;BME280;4197;42.130;24.746;2024-02-26T11:44:45;99070.59;;;15.06;77.16
8320;BME280;4197;42.130;24.746;2024-02-26T11:47:18;99066.69;;;15.07;75.59
8320;BME280;4197;42.130;24.746;2024-02-26T11:49:47;99064.75;;;15.04;75.80
8320;BME280;4197;42.130;24.746;2024-02-26T11:52:17;99054.19;;;15.21;75.32
8320;BME280;4197;42.130;24.746;2024-02-26T11:54:47;99063.97;;;15.14;74.85
8320;BME280;4197;42.130;24.746;2024-02-26T11:57:28;99057.31;;;15.12;74.99
8320;BME280;4197;42.130;24.746;2024-02-26T12:00:11;99052.16;;;15.50;74.15
8320;BME280;4197;42.130;24.746;2024-02-26T12:02:47;99051.69;;;15.73;73.24
8320;BME280;4197;42.130;24.746;2024-02-26T12:05:17;99046.91;;;15.88;72.07
8320;BME280;4197;42.130;24.746;2024-02-26T12:07:50;99051.16;;;15.99;71.69
8320;BME280;4197;42.130;24.746;2024-02-26T12:10:23;99054.53;;;16.18;69.63
8320;BME280;4197;42.130;24.746;2024-02-26T12:12:54;99045.97;;;16.16;69.38
8320;BME280;4197;42.130;24.746;2024-02-26T12:15:30;99048.34;;;16.14;69.66
8320;BME280;4197;42.130;24.746;2024-02-26T12:18:01;99044.78;;;16.17;69.98
8320;BME280;4197;42.130;24.746;2024-02-26T12:20:31;99047.50;;;16.24;69.72
8320;BME280;4197;42.130;24.746;2024-02-26T12:23:01;99041.91;;;16.38;68.97
8320;BME280;4197;42.130;24.746;2024-02-26T12:25:30;99031.38;;;16.33;68.44
8320;BME280;4197;42.130;24.746;2024-02-26T12:28:00;99041.34;;;16.58;68.05
8320;BME280;4197;42.130;24.746;2024-02-26T12:30:30;99036.25;;;16.60;68.73
8320;BME280;4197;42.130;24.746;2024-02-26T12:32:59;99039.31;;;16.69;68.70
8320;BME280;4197;42.130;24.746;2024-02-26T12:35:30;99034.88;;;16.86;67.41
8320;BME280;4197;42.130;24.746;2024-02-26T12:38:01;99027.03;;;16.88;67.28
8320;BME280;4197;42.130;24.746;2024-02-26T12:40:31;99033.63;;;16.94;66.68
8320;BME280;4197;42.130;24.746;2024-02-26T12:43:00;99029.66;;;16.99;66.00
8320;BME280;4197;42.130;24.746;2024-02-26T12:45:29;99028.22;;;16.87;66.57
8320;BME280;4197;42.130;24.746;2024-02-26T12:47:59;99022.78;;;16.83;65.46
8320;BME280;4197;42.130;24.746;2024-02-26T12:50:28;99023.63;;;16.73;66.14
8320;BME280;4197;42.130;24.746;2024-02-26T12:52:58;99013.78;;;16.79;65.88
8320;BME280;4197;42.130;24.746;2024-02-26T12:55:28;99033.75;;;16.76;67.10
8320;BME280;4197;42.130;24.746;2024-02-26T12:57:58;99032.97;;;16.76;66.31
8320;BME280;4197;42.130;24.746;2024-02-26T13:00:27;99025.75;;;17.00;64.69
8320;BME280;4197;42.130;24.746;2024-02-26T13:02:56;99020.41;;;16.85;65.64
8320;BME280;4197;42.130;24.746;2024-02-26T13:05:28;99018.03;;;16.87;65.43
8320;BME280;4197;42.130;24.746;2024-02-26T13:07:56;99023.44;;;16.94;65.67
8320;BME280;4197;42.130;24.746;2024-02-26T13:10:25;99018.69;;;16.99;65.75
8320;BME280;4197;42.130;24.746;2024-02-26T13:12:54;99025.31;;;17.05;65.81
8320;BME280;4197;42.130;24.746;2024-02-26T13:15:23;99019.50;;;16.95;65.90
8320;BME280;4197;42.130;24.746;2024-02-26T13:17:51;99018.34;;;16.97;65.84
8320;BME280;4197;42.130;24.746;2024-02-26T13:20:27;99022.63;;;16.98;65.50
8320;BME280;4197;42.130;24.746;2024-02-26T13:23:02;99012.88;;;16.97;65.47